Time;durP1;ratioP1;P1;durP2;ratioP2;P2;SDS_P1;SDS_P2;PMS_P1;PMS_P2;Temp;Humidity;BMP_temperature;BMP_pressure;BME280_temperature;BME280_humidity;BME280_pressure;Samples;Min_cycle;Max_cycle;Signal;HPM_P1;HPM_P2
2021/10/12 00:01:34;;;;;;;123.17;114.80;;;;;;;;;;5071720;28;20447;-62
2021/10/12 00:04:01;;;;;;;119.67;111.67;;;;;;;;;;5071345;28;20486;-63
2021/10/12 00:06:28;;;;;;;118.87;111.00;;;;;;;;;;5071383;28;20957;-66
2021/10/12 00:08:55;;;;;;;119.30;111.80;;;;;;;;;;5059878;28;20452;-62
2021/10/12 00:11:22;;;;;;;112.83;105.03;;;;;;;;;;5055591;28;20452;-65
2021/10/12 00:13:50;;;;;;;109.83;102.43;;;;;;;;;;5055595;28;20458;-63
2021/10/12 00:16:17;;;;;;;105.83;98.90;;;;;;;;;;5054514;28;20447;-66
2021/10/12 00:18:45;;;;;;;99.87;92.97;;;;;;;;;;5055498;28;20443;-62
2021/10/12 00:21:12;;;;;;;104.93;98.03;;;;;;;;;;5055024;28;20447;-62
2021/10/12 00:23:40;;;;;;;102.60;95.80;;;;;;;;;;5055354;28;20913;-63
2021/10/12 00:26:07;;;;;;;104.20;97.33;;;;;;;;;;5054407;28;20451;-67
2021/10/12 00:28:34;;;;;;;104.00;97.50;;;;;;;;;;5055823;28;20454;-62
2021/10/12 00:31:01;;;;;;;106.07;99.23;;;;;;;;;;5061197;28;20457;-65
2021/10/12 00:33:28;;;;;;;98.73;92.50;;;;;;;;;;5071218;28;20439;-62
2021/10/12 00:35:57;;;;;;;97.87;91.67;;;;;;;;;;5057533;28;20451;-66
2021/10/12 00:38:24;;;;;;;93.30;87.30;;;;;;;;;;5057670;28;20482;-63
2021/10/12 00:40:51;;;;;;;93.30;87.10;;;;;;;;;;5074785;28;21199;-62
2021/10/12 00:43:25;;;;;;;95.83;89.73;;;;;;;;;;5073702;28;20481;-62
2021/10/12 00:45:52;;;;;;;88.10;82.37;;;;;;;;;;5074674;28;20447;-63
2021/10/12 00:48:19;;;;;;;88.00;82.20;;;;;;;;;;5073395;28;20821;-64
2021/10/12 00:50:46;;;;;;;88.97;83.17;;;;;;;;;;5083744;28;20449;-62
2021/10/12 00:53:15;;;;;;;88.20;82.57;;;;;;;;;;5094512;28;20438;-66
2021/10/12 00:55:42;;;;;;;88.20;82.30;;;;;;;;;;5074372;28;20462;-62
2021/10/12 00:58:11;;;;;;;89.10;83.57;;;;;;;;;;5074420;28;20451;-63
2021/10/12 01:00:39;;;;;;;90.77;85.37;;;;;;;;;;5074190;28;20451;-62
2021/10/12 01:03:06;;;;;;;89.30;83.90;;;;;;;;;;5074564;28;20447;-65
2021/10/12 01:05:33;;;;;;;89.23;83.50;;;;;;;;;;5055436;28;20990;-62
2021/10/12 01:08:01;;;;;;;87.07;81.97;;;;;;;;;;5054295;28;20522;-63
2021/10/12 01:10:30;;;;;;;88.67;83.47;;;;;;;;;;5060078;28;20482;-67
2021/10/12 01:12:57;;;;;;;86.77;81.50;;;;;;;;;;5054275;28;20443;-62
2021/10/12 01:15:24;;;;;;;88.43;83.33;;;;;;;;;;5068955;28;20993;-65
2021/10/12 01:17:51;;;;;;;89.03;83.63;;;;;;;;;;5074332;28;20453;-63
2021/10/12 01:20:18;;;;;;;87.90;82.70;;;;;;;;;;5058540;28;20474;-63
2021/10/12 01:22:48;;;;;;;85.87;80.63;;;;;;;;;;5054032;28;20455;-62
2021/10/12 01:25:15;;;;;;;85.27;80.17;;;;;;;;;;5066362;28;20490;-62
2021/10/12 01:27:43;;;;;;;85.33;80.03;;;;;;;;;;5073723;28;20942;-65
2021/10/12 01:30:11;;;;;;;87.10;81.80;;;;;;;;;;5062184;28;20449;-62
2021/10/12 01:32:38;;;;;;;87.97;82.67;;;;;;;;;;5064905;28;20456;-62
2021/10/12 01:35:06;;;;;;;88.33;82.83;;;;;;;;;;5053595;28;20471;-62
2021/10/12 01:37:33;;;;;;;86.27;81.10;;;;;;;;;;5053236;28;20451;-64
2021/10/12 01:40:01;;;;;;;86.80;81.80;;;;;;;;;;5054308;28;20456;-62
2021/10/12 01:42:28;;;;;;;85.77;80.50;;;;;;;;;;5053132;28;20980;-63
2021/10/12 01:44:55;;;;;;;88.83;83.73;;;;;;;;;;5053083;28;20488;-63
2021/10/12 01:47:23;;;;;;;82.43;77.50;;;;;;;;;;5053042;28;20458;-67
2021/10/12 01:49:50;;;;;;;84.93;79.70;;;;;;;;;;5053172;28;20448;-63
2021/10/12 01:52:17;;;;;;;87.13;82.03;;;;;;;;;;5072992;28;20981;-66
2021/10/12 01:54:44;;;;;;;84.07;79.17;;;;;;;;;;5073196;28;20463;-63
2021/10/12 01:57:12;;;;;;;85.80;80.77;;;;;;;;;;5053878;28;20974;-65
2021/10/12 01:59:39;;;;;;;86.40;81.30;;;;;;;;;;5053072;28;20931;-63
2021/10/12 02:02:07;;;;;;;89.63;84.47;;;;;;;;;;5075907;28;20458;-63
2021/10/12 02:04:34;;;;;;;87.10;81.97;;;;;;;;;;5080932;28;21028;-65
2021/10/12 02:07:01;;;;;;;88.97;83.77;;;;;;;;;;5056155;28;20452;-62
2021/10/12 02:09:29;;;;;;;89.57;84.27;;;;;;;;;;5053241;28;20450;-62
2021/10/12 02:11:56;;;;;;;89.07;83.87;;;;;;;;;;5067653;28;20950;-62
2021/10/12 02:14:25;;;;;;;86.53;81.33;;;;;;;;;;5072404;28;20880;-66
2021/10/12 02:16:52;;;;;;;86.33;81.07;;;;;;;;;;5058492;28;20448;-62
2021/10/12 02:19:19;;;;;;;87.27;81.87;;;;;;;;;;5052477;28;21185;-62
2021/10/12 02:21:46;;;;;;;89.67;84.27;;;;;;;;;;5064911;28;20450;-62
2021/10/12 02:24:13;;;;;;;89.30;84.07;;;;;;;;;;5072316;28;20486;-66
2021/10/12 02:26:41;;;;;;;87.70;82.40;;;;;;;;;;5071404;28;20455;-63
2021/10/12 02:29:08;;;;;;;87.07;81.70;;;;;;;;;;5072620;28;20809;-63
2021/10/12 02:31:36;;;;;;;94.90;89.33;;;;;;;;;;5072146;28;20442;-64
2021/10/12 02:34:04;;;;;;;86.03;80.93;;;;;;;;;;5072074;28;20474;-63
2021/10/12 02:36:31;;;;;;;85.73;80.53;;;;;;;;;;5072406;28;20458;-63
2021/10/12 02:38:58;;;;;;;87.03;81.93;;;;;;;;;;5064991;28;21012;-63
2021/10/12 02:41:25;;;;;;;87.27;82.03;;;;;;;;;;5052977;28;20447;-63
2021/10/12 02:43:52;;;;;;;88.53;83.20;;;;;;;;;;5057718;28;20479;-64
2021/10/12 02:46:20;;;;;;;89.10;83.37;;;;;;;;;;5071873;28;20455;-63
2021/10/12 02:48:48;;;;;;;84.60;79.53;;;;;;;;;;5071717;28;20443;-63
2021/10/12 02:51:16;;;;;;;85.10;80.00;;;;;;;;;;5072640;28;20451;-63
2021/10/12 02:53:43;;;;;;;86.70;81.43;;;;;;;;;;5068972;28;20452;-63
2021/10/12 02:56:10;;;;;;;87.07;81.77;;;;;;;;;;5052259;28;20972;-63
2021/10/12 02:58:37;;;;;;;89.17;83.70;;;;;;;;;;5053516;28;20444;-63
2021/10/12 03:01:04;;;;;;;91.03;85.63;;;;;;;;;;5063042;28;20459;-67
2021/10/12 03:03:31;;;;;;;105.63;99.83;;;;;;;;;;5051859;28;20810;-63
2021/10/12 03:06:00;;;;;;;90.37;85.10;;;;;;;;;;5052022;28;20498;-66
2021/10/12 03:08:27;;;;;;;92.90;87.50;;;;;;;;;;5052576;28;20444;-63
2021/10/12 03:10:54;;;;;;;91.40;86.00;;;;;;;;;;5077808;28;20453;-62
2021/10/12 03:13:21;;;;;;;90.50;85.23;;;;;;;;;;5067272;28;20451;-62
2021/10/12 03:15:48;;;;;;;91.37;85.93;;;;;;;;;;5071210;28;20478;-62
2021/10/12 03:18:16;;;;;;;90.60;85.20;;;;;;;;;;5086948;22;20435;-67
2021/10/12 03:20:43;;;;;;;93.00;87.50;;;;;;;;;;5068085;28;20461;-69
2021/10/12 03:23:12;;;;;;;86.43;80.93;;;;;;;;;;5072088;28;20812;-66
2021/10/12 03:25:39;;;;;;;91.50;86.10;;;;;;;;;;5071120;28;21039;-71
2021/10/12 03:28:06;;;;;;;89.10;83.40;;;;;;;;;;5071399;28;20451;-69
2021/10/12 03:30:33;;;;;;;91.53;86.03;;;;;;;;;;5071277;28;20871;-67
2021/10/12 03:33:01;;;;;;;91.73;86.27;;;;;;;;;;5070896;28;20987;-72
2021/10/12 03:35:31;;;;;;;90.60;85.10;;;;;;;;;;5070516;28;20447;-72
2021/10/12 03:37:58;;;;;;;94.53;88.77;;;;;;;;;;5062973;28;20460;-73
2021/10/12 03:40:27;;;;;;;98.83;93.13;;;;;;;;;;5057528;28;20446;-74
2021/10/12 03:42:54;;;;;;;92.07;86.57;;;;;;;;;;5071243;28;20455;-69
2021/10/12 03:45:21;;;;;;;91.77;86.17;;;;;;;;;;5065484;28;21014;-69
2021/10/12 03:47:49;;;;;;;97.47;91.47;;;;;;;;;;5057366;28;20451;-69
2021/10/12 03:50:16;;;;;;;95.63;90.00;;;;;;;;;;5070732;28;20471;-71
2021/10/12 03:52:43;;;;;;;94.03;88.43;;;;;;;;;;5071526;28;20455;-70
2021/10/12 03:55:10;;;;;;;95.67;90.17;;;;;;;;;;5070063;28;20450;-70
2021/10/12 03:57:39;;;;;;;92.17;86.57;;;;;;;;;;5071405;28;20807;-67
2021/10/12 04:00:07;;;;;;;98.10;92.43;;;;;;;;;;5070164;28;20463;-74
2021/10/12 04:02:34;;;;;;;94.83;89.03;;;;;;;;;;5051697;28;20448;-70
2021/10/12 04:05:01;;;;;;;100.10;94.30;;;;;;;;;;5051043;28;20477;-68
2021/10/12 04:07:28;;;;;;;91.43;86.03;;;;;;;;;;5070848;28;20946;-67
2021/10/12 04:09:56;;;;;;;88.93;83.43;;;;;;;;;;5071664;28;20815;-71
2021/10/12 04:12:23;;;;;;;91.83;86.43;;;;;;;;;;5070897;28;20833;-67
2021/10/12 04:14:51;;;;;;;82.77;77.57;;;;;;;;;;5071696;28;20438;-70
2021/10/12 04:17:18;;;;;;;84.13;78.73;;;;;;;;;;5070602;28;20454;-66
2021/10/12 04:19:46;;;;;;;95.53;89.93;;;;;;;;;;5070946;28;20475;-70
2021/10/12 04:22:13;;;;;;;89.93;84.23;;;;;;;;;;5068555;28;20458;-70
2021/10/12 04:24:40;;;;;;;91.03;85.33;;;;;;;;;;5051182;28;20483;-67
2021/10/12 04:27:07;;;;;;;94.83;89.13;;;;;;;;;;5051428;28;20451;-65
2021/10/12 04:29:35;;;;;;;91.83;85.90;;;;;;;;;;5051468;28;20482;-67
2021/10/12 04:32:04;;;;;;;92.67;86.87;;;;;;;;;;5051541;28;20454;-65
2021/10/12 04:34:31;;;;;;;86.53;80.93;;;;;;;;;;5051219;28;20447;-67
2021/10/12 04:36:58;;;;;;;94.10;88.20;;;;;;;;;;5056921;28;20463;-65
2021/10/12 04:39:28;;;;;;;90.37;84.77;;;;;;;;;;5062106;28;20466;-70
2021/10/12 04:41:57;;;;;;;90.57;84.87;;;;;;;;;;5071570;28;20446;-67
2021/10/12 04:44:24;;;;;;;93.90;88.20;;;;;;;;;;5069735;28;20447;-66
2021/10/12 04:46:51;;;;;;;88.63;82.93;;;;;;;;;;5071420;28;20446;-66
2021/10/12 04:49:19;;;;;;;85.53;80.13;;;;;;;;;;5070604;28;20845;-70
2021/10/12 04:51:47;;;;;;;90.20;84.50;;;;;;;;;;5071243;28;20451;-66
2021/10/12 04:54:14;;;;;;;88.47;82.97;;;;;;;;;;5072384;28;20458;-67
2021/10/12 04:56:41;;;;;;;90.00;84.20;;;;;;;;;;5075611;28;21142;-66
2021/10/12 04:59:08;;;;;;;87.70;82.00;;;;;;;;;;5075338;28;20512;-70
2021/10/12 05:01:35;;;;;;;95.40;89.60;;;;;;;;;;5075302;28;20446;-67
2021/10/12 05:04:02;;;;;;;92.50;86.70;;;;;;;;;;5066313;28;20452;-66
2021/10/12 05:06:30;;;;;;;175.10;164.20;;;;;;;;;;5086363;28;20481;-67
2021/10/12 05:08:58;;;;;;;180.73;169.83;;;;;;;;;;5091429;28;20467;-65
2021/10/12 05:11:25;;;;;;;116.27;109.47;;;;;;;;;;5074616;28;20450;-68
2021/10/12 05:13:53;;;;;;;97.53;91.27;;;;;;;;;;5074357;28;20508;-66
2021/10/12 05:16:21;;;;;;;96.90;90.60;;;;;;;;;;5073980;28;20538;-68
2021/10/12 05:18:51;;;;;;;116.63;110.23;;;;;;;;;;5073010;28;20486;-69
2021/10/12 05:21:18;;;;;;;100.07;93.57;;;;;;;;;;5055592;28;20452;-65
2021/10/12 05:23:46;;;;;;;98.87;92.33;;;;;;;;;;5054492;28;20444;-69
2021/10/12 05:26:14;;;;;;;108.17;101.63;;;;;;;;;;5054202;28;20495;-67
2021/10/12 05:28:41;;;;;;;95.53;89.37;;;;;;;;;;5054372;28;20982;-66
2021/10/12 05:31:08;;;;;;;97.30;90.90;;;;;;;;;;5054328;28;20439;-69
2021/10/12 05:33:35;;;;;;;101.77;95.27;;;;;;;;;;5054873;28;20456;-67
2021/10/12 05:36:02;;;;;;;100.83;94.23;;;;;;;;;;5054159;28;20444;-67
2021/10/12 05:38:29;;;;;;;105.80;99.50;;;;;;;;;;5062640;28;20473;-68
2021/10/12 05:40:58;;;;;;;104.07;97.37;;;;;;;;;;5074167;28;20449;-67
2021/10/12 05:43:25;;;;;;;115.57;108.70;;;;;;;;;;5067324;28;20447;-67
2021/10/12 05:45:52;;;;;;;100.37;93.53;;;;;;;;;;5054256;28;20485;-66
2021/10/12 05:48:19;;;;;;;104.10;97.40;;;;;;;;;;5054440;28;20463;-72
2021/10/12 05:50:47;;;;;;;101.73;95.40;;;;;;;;;;5071665;28;20455;-69
2021/10/12 05:53:25;;;;;;;104.13;97.17;;;;;;;;;;5069673;28;20487;-64
2021/10/12 05:55:55;;;;;;;97.93;90.80;;;;;;;;;;5053967;28;20443;-69
2021/10/12 05:58:30;;;;;;;74.50;69.00;;;;;;;;;;5057969;28;20487;-68
2021/10/12 06:00:57;;;;;;;66.90;62.20;;;;;;;;;;5060090;28;20469;-67
2021/10/12 06:03:25;;;;;;;103.17;96.93;;;;;;;;;;5074053;28;20463;-70
2021/10/12 06:05:52;;;;;;;98.07;91.37;;;;;;;;;;5061233;28;20975;-69
2021/10/12 06:08:19;;;;;;;117.07;109.77;;;;;;;;;;5054748;28;20472;-70
2021/10/12 06:10:46;;;;;;;127.90;118.87;;;;;;;;;;5069634;28;20473;-69
2021/10/12 06:13:14;;;;;;;102.63;95.20;;;;;;;;;;5072725;28;20451;-69
2021/10/12 06:15:44;;;;;;;231.33;217.37;;;;;;;;;;5073328;28;20446;-71
2021/10/12 06:18:11;;;;;;;163.87;152.00;;;;;;;;;;5072954;28;20455;-69
2021/10/12 06:20:38;;;;;;;255.77;238.37;;;;;;;;;;5073817;28;20793;-70
2021/10/12 06:23:06;;;;;;;312.97;291.47;;;;;;;;;;5066974;28;20448;-70
2021/10/12 06:25:33;;;;;;;446.43;415.37;;;;;;;;;;5071164;28;20524;-69
2021/10/12 06:28:00;;;;;;;575.10;534.70;;;;;;;;;;5070191;28;20451;-70
2021/10/12 06:30:27;;;;;;;673.17;625.07;;;;;;;;;;5070211;28;20486;-69
2021/10/12 06:32:55;;;;;;;682.00;634.07;;;;;;;;;;5073607;28;20930;-70
2021/10/12 06:35:23;;;;;;;693.77;646.40;;;;;;;;;;5072081;28;20447;-69
2021/10/12 06:37:50;;;;;;;663.37;617.57;;;;;;;;;;5073512;28;20545;-70
2021/10/12 06:40:17;;;;;;;585.23;542.97;;;;;;;;;;5067735;28;20986;-69
2021/10/12 06:42:44;;;;;;;490.30;452.37;;;;;;;;;;5053050;28;20447;-69
2021/10/12 06:45:14;;;;;;;471.93;435.23;;;;;;;;;;5061805;28;20486;-69
2021/10/12 06:47:41;;;;;;;447.77;414.50;;;;;;;;;;5072620;28;20558;-70
2021/10/12 06:50:10;;;;;;;427.57;395.63;;;;;;;;;;5059533;28;20565;-70
2021/10/12 06:52:37;;;;;;;413.20;383.90;;;;;;;;;;5072751;28;20443;-69
2021/10/12 06:55:05;;;;;;;426.20;400.20;;;;;;;;;;5067987;28;20798;-70
2021/10/12 06:57:32;;;;;;;387.53;364.03;;;;;;;;;;5064868;28;20490;-69
2021/10/12 06:59:59;;;;;;;391.10;368.87;;;;;;;;;;5063164;28;20480;-70
2021/10/12 07:02:26;;;;;;;377.73;358.53;;;;;;;;;;5057937;28;20455;-71
2021/10/12 07:04:53;;;;;;;361.40;344.10;;;;;;;;;;5052384;28;20809;-70
2021/10/12 07:07:21;;;;;;;346.07;329.77;;;;;;;;;;5055201;28;20458;-71
2021/10/12 07:09:49;;;;;;;344.80;328.87;;;;;;;;;;5052198;28;20482;-72
2021/10/12 07:12:16;;;;;;;316.60;302.30;;;;;;;;;;5064792;28;20443;-72
2021/10/12 07:14:43;;;;;;;310.67;296.97;;;;;;;;;;5071858;28;20443;-70
2021/10/12 07:17:10;;;;;;;255.23;242.80;;;;;;;;;;5069211;28;20439;-70
2021/10/12 07:19:37;;;;;;;221.10;210.00;;;;;;;;;;5066074;28;21009;-69
2021/10/12 07:22:04;;;;;;;185.93;176.70;;;;;;;;;;5067837;28;20453;-68
2021/10/12 07:24:33;;;;;;;162.77;154.23;;;;;;;;;;5068070;28;20442;-70
2021/10/12 07:27:01;;;;;;;142.60;134.90;;;;;;;;;;5071649;28;20501;-70
2021/10/12 07:29:28;;;;;;;122.37;115.67;;;;;;;;;;5071166;28;20475;-69
2021/10/12 07:31:55;;;;;;;125.10;118.50;;;;;;;;;;5060267;28;20446;-69
2021/10/12 07:34:22;;;;;;;104.17;98.27;;;;;;;;;;5071553;28;20446;-69
2021/10/12 07:36:49;;;;;;;100.83;95.07;;;;;;;;;;5055031;28;20543;-69
2021/10/12 07:39:16;;;;;;;86.47;81.27;;;;;;;;;;5069724;28;20847;-69
2021/10/12 07:41:45;;;;;;;81.03;76.33;;;;;;;;;;5057081;28;20475;-69
2021/10/12 07:44:12;;;;;;;73.77;69.47;;;;;;;;;;5051540;28;20455;-69
2021/10/12 07:46:39;;;;;;;67.43;62.97;;;;;;;;;;5066968;28;20481;-69
2021/10/12 07:49:06;;;;;;;163.47;153.00;;;;;;;;;;5071775;28;20463;-67
2021/10/12 07:51:33;;;;;;;229.37;218.60;;;;;;;;;;5057799;28;20451;-71
2021/10/12 07:54:01;;;;;;;206.10;196.40;;;;;;;;;;5070007;28;20899;-70
2021/10/12 07:56:36;;;;;;;150.93;142.67;;;;;;;;;;5067825;28;20486;-70
2021/10/12 07:59:05;;;;;;;141.87;134.20;;;;;;;;;;5068593;28;20485;-71
2021/10/12 08:01:33;;;;;;;166.63;158.73;;;;;;;;;;5071577;28;20453;-70
2021/10/12 08:04:00;;;;;;;114.70;108.43;;;;;;;;;;5068620;28;20861;-70
2021/10/12 08:06:27;;;;;;;100.90;94.60;;;;;;;;;;5056755;28;20475;-70
2021/10/12 08:08:55;;;;;;;94.80;88.70;;;;;;;;;;5062702;28;20473;-70
2021/10/12 08:11:24;;;;;;;79.37;74.27;;;;;;;;;;5070235;28;20444;-69
2021/10/12 08:13:54;;;;;;;83.23;78.03;;;;;;;;;;5060641;28;20950;-69
2021/10/12 08:16:29;;;;;;;81.60;76.70;;;;;;;;;;5070411;28;20446;-70
2021/10/12 08:18:56;;;;;;;72.60;68.03;;;;;;;;;;5058006;28;20558;-69
2021/10/12 08:21:24;;;;;;;62.13;57.87;;;;;;;;;;5051902;28;20458;-69
2021/10/12 08:23:52;;;;;;;64.07;58.80;;;;;;;;;;5066447;28;20447;-69
2021/10/12 08:26:20;;;;;;;63.63;59.20;;;;;;;;;;5070503;28;20479;-69
2021/10/12 08:28:47;;;;;;;57.40;53.40;;;;;;;;;;5058691;28;20475;-69
2021/10/12 08:31:14;;;;;;;54.00;50.33;;;;;;;;;;5060761;28;20829;-69
2021/10/12 08:33:42;;;;;;;49.73;46.13;;;;;;;;;;5055967;28;20452;-70
2021/10/12 08:36:10;;;;;;;46.70;43.27;;;;;;;;;;5054804;28;20440;-69
2021/10/12 08:38:38;;;;;;;46.87;43.97;;;;;;;;;;5061794;28;21002;-69
2021/10/12 08:41:06;;;;;;;42.77;40.07;;;;;;;;;;5062045;28;20542;-69
2021/10/12 08:43:33;;;;;;;40.67;37.67;;;;;;;;;;5058638;28;20439;-69
2021/10/12 08:46:01;;;;;;;39.53;36.33;;;;;;;;;;5065592;28;20487;-70
2021/10/12 08:48:31;;;;;;;38.17;35.47;;;;;;;;;;5064498;28;20473;-72
2021/10/12 08:51:00;;;;;;;40.70;37.70;;;;;;;;;;5073777;28;20949;-69
2021/10/12 08:53:29;;;;;;;46.43;42.97;;;;;;;;;;5059568;28;20456;-71
2021/10/12 08:55:56;;;;;;;44.50;41.17;;;;;;;;;;5056241;28;20852;-71
2021/10/12 08:58:24;;;;;;;42.03;38.73;;;;;;;;;;5055170;28;20467;-68
2021/10/12 09:01:03;;;;;;;38.97;36.43;;;;;;;;;;5063435;28;20937;-68
2021/10/12 09:03:43;;;;;;;36.57;34.07;;;;;;;;;;5068371;28;20945;-69
2021/10/12 09:06:12;;;;;;;34.53;32.43;;;;;;;;;;5055119;28;20478;-68
2021/10/12 09:08:39;;;;;;;30.80;28.80;;;;;;;;;;5055179;28;20467;-69
2021/10/12 09:11:08;;;;;;;29.80;28.00;;;;;;;;;;5054886;28;20930;-69
2021/10/12 09:13:44;;;;;;;30.07;28.27;;;;;;;;;;5055447;28;20781;-68
2021/10/12 09:16:11;;;;;;;29.60;27.80;;;;;;;;;;5055291;28;20443;-69
2021/10/12 09:18:51;;;;;;;33.63;30.17;;;;;;;;;;5057173;28;20479;-69
2021/10/12 09:21:21;;;;;;;31.63;28.47;;;;;;;;;;5095017;22;20498;-67
2021/10/12 09:23:49;;;;;;;28.90;26.63;;;;;;;;;;5082134;28;20538;-70
2021/10/12 09:26:20;;;;;;;28.87;26.77;;;;;;;;;;5071957;28;20517;-64
2021/10/12 09:28:47;;;;;;;29.80;27.00;;;;;;;;;;5073774;28;20447;-68
2021/10/12 09:31:14;;;;;;;31.13;27.03;;;;;;;;;;5073995;28;20498;-67
2021/10/12 09:33:47;;;;;;;31.30;24.17;;;;;;;;;;5060987;28;20444;-66
2021/10/12 09:36:28;;;;;;;27.90;25.03;;;;;;;;;;5053043;28;20443;-67
2021/10/12 09:38:55;;;;;;;26.97;24.80;;;;;;;;;;5053256;28;20479;-67
2021/10/12 09:41:25;;;;;;;27.17;24.97;;;;;;;;;;5052686;28;20482;-67
2021/10/12 09:43:52;;;;;;;23.20;21.60;;;;;;;;;;5033842;28;20444;-67
2021/10/12 09:46:23;;;;;;;24.03;22.63;;;;;;;;;;5033397;28;20484;-67
2021/10/12 09:48:51;;;;;;;23.00;21.43;;;;;;;;;;5049118;28;20502;-66
2021/10/12 09:51:18;;;;;;;24.33;22.53;;;;;;;;;;5053514;28;20474;-65
2021/10/12 09:53:47;;;;;;;22.63;21.23;;;;;;;;;;5053938;28;20451;-66
2021/10/12 09:56:15;;;;;;;21.40;20.20;;;;;;;;;;5054938;28;20451;-66
2021/10/12 09:58:45;;;;;;;22.77;21.40;;;;;;;;;;5051579;28;20474;-66
2021/10/12 10:01:12;;;;;;;22.70;21.30;;;;;;;;;;5053047;28;20583;-65
2021/10/12 10:03:40;;;;;;;23.00;21.67;;;;;;;;;;5052026;28;20458;-66
2021/10/12 10:06:10;;;;;;;23.17;21.87;;;;;;;;;;5053119;28;20444;-66
2021/10/12 10:08:38;;;;;;;22.83;21.40;;;;;;;;;;5052425;28;20448;-66
2021/10/12 10:11:07;;;;;;;22.27;21.10;;;;;;;;;;5055916;28;20986;-67
2021/10/12 10:13:34;;;;;;;23.20;21.90;;;;;;;;;;5053616;28;20458;-66
2021/10/12 10:16:02;;;;;;;22.00;20.77;;;;;;;;;;5052061;28;20820;-66
2021/10/12 10:18:29;;;;;;;22.90;21.60;;;;;;;;;;5052688;28;20448;-66
2021/10/12 10:20:56;;;;;;;21.40;20.23;;;;;;;;;;5052440;28;20471;-67
2021/10/12 10:23:42;;;;;;;21.30;20.20;;;;;;;;;;5053121;28;20447;-67
2021/10/12 10:26:24;;;;;;;22.20;20.90;;;;;;;;;;5050070;28;20459;-66
2021/10/12 10:28:53;;;;;;;22.03;20.83;;;;;;;;;;5052183;28;20440;-65
2021/10/12 10:31:37;;;;;;;22.20;20.70;;;;;;;;;;5052170;28;20986;-67
2021/10/12 10:34:19;;;;;;;22.00;20.80;;;;;;;;;;5052714;28;20455;-68
2021/10/12 10:36:47;;;;;;;21.27;20.07;;;;;;;;;;5053185;28;20943;-66
2021/10/12 10:39:28;;;;;;;20.87;19.70;;;;;;;;;;5052594;28;20439;-66
2021/10/12 10:41:57;;;;;;;21.47;20.23;;;;;;;;;;5051912;28;20519;-66
2021/10/12 10:44:44;;;;;;;20.90;19.80;;;;;;;;;;5052376;28;20452;-66
2021/10/12 10:47:11;;;;;;;21.73;20.53;;;;;;;;;;5051727;28;20487;-66
2021/10/12 10:49:38;;;;;;;21.23;19.93;;;;;;;;;;5052050;28;20834;-66
2021/10/12 10:52:07;;;;;;;21.00;19.90;;;;;;;;;;5052161;28;20459;-65
2021/10/12 10:55:04;;;;;;;21.40;20.07;;;;;;;;;;5051684;28;20943;-65
2021/10/12 10:57:33;;;;;;;20.90;19.70;;;;;;;;;;5052520;28;20479;-69
2021/10/12 11:00:23;;;;;;;21.00;19.90;;;;;;;;;;5051879;28;20845;-63
2021/10/12 11:02:51;;;;;;;22.07;20.77;;;;;;;;;;5052314;28;20444;-66
2021/10/12 11:05:30;;;;;;;20.70;19.70;;;;;;;;;;5050956;28;20440;-65
2021/10/12 11:08:07;;;;;;;20.30;19.20;;;;;;;;;;5065780;28;20482;-66
2021/10/12 11:10:35;;;;;;;21.23;19.97;;;;;;;;;;5035089;28;20472;-66
2021/10/12 11:13:04;;;;;;;20.87;19.77;;;;;;;;;;5050871;28;20448;-66
2021/10/12 11:15:31;;;;;;;21.00;19.97;;;;;;;;;;5051139;28;20446;-65
2021/10/12 11:18:05;;;;;;;21.63;20.43;;;;;;;;;;5051915;28;20440;-66
2021/10/12 11:20:40;;;;;;;20.77;19.77;;;;;;;;;;5051495;28;21053;-67
2021/10/12 11:23:07;;;;;;;20.60;19.50;;;;;;;;;;5051318;28;21013;-66
2021/10/12 11:25:34;;;;;;;20.57;19.57;;;;;;;;;;5051287;28;20448;-67
2021/10/12 11:28:08;;;;;;;21.40;20.20;;;;;;;;;;5051614;28;21001;-66
2021/10/12 11:30:36;;;;;;;21.10;20.00;;;;;;;;;;5032113;28;20471;-67
2021/10/12 11:33:03;;;;;;;21.00;20.00;;;;;;;;;;5031916;28;20455;-66
2021/10/12 11:35:34;;;;;;;22.80;21.50;;;;;;;;;;5050933;28;20451;-67
2021/10/12 11:38:02;;;;;;;20.93;19.83;;;;;;;;;;5052098;28;20513;-66
2021/10/12 11:40:29;;;;;;;21.00;20.00;;;;;;;;;;5050993;28;20474;-66
2021/10/12 11:42:59;;;;;;;21.03;19.87;;;;;;;;;;5051662;28;20467;-66
2021/10/12 11:45:27;;;;;;;21.80;20.50;;;;;;;;;;5050756;28;20804;-68
2021/10/12 11:47:55;;;;;;;21.70;20.57;;;;;;;;;;5050697;28;20483;-66
2021/10/12 11:50:22;;;;;;;21.43;20.33;;;;;;;;;;5044893;28;20986;-65
2021/10/12 11:52:50;;;;;;;22.00;20.70;;;;;;;;;;5051377;28;20577;-65
2021/10/12 11:55:17;;;;;;;21.30;20.07;;;;;;;;;;5050006;28;20527;-65
2021/10/12 11:57:46;;;;;;;20.93;19.73;;;;;;;;;;5051561;28;20448;-65
2021/10/12 12:00:14;;;;;;;20.53;19.43;;;;;;;;;;5051749;28;20996;-64
2021/10/12 12:02:42;;;;;;;20.80;19.80;;;;;;;;;;5050969;28;20456;-65
2021/10/12 12:05:10;;;;;;;21.40;20.20;;;;;;;;;;5053565;28;20981;-65
2021/10/12 12:07:40;;;;;;;20.63;19.53;;;;;;;;;;5054948;28;20475;-65
2021/10/12 12:10:08;;;;;;;20.63;19.40;;;;;;;;;;5054034;28;20480;-65
2021/10/12 12:12:35;;;;;;;20.23;19.23;;;;;;;;;;5040008;28;20457;-65
2021/10/12 12:15:04;;;;;;;20.53;19.47;;;;;;;;;;5045318;28;20460;-64
2021/10/12 12:17:32;;;;;;;20.20;19.10;;;;;;;;;;5055087;28;20451;-65
2021/10/12 12:20:07;;;;;;;20.13;18.93;;;;;;;;;;5055201;28;20491;-65
2021/10/12 12:22:35;;;;;;;19.93;18.93;;;;;;;;;;5055410;28;20435;-65
2021/10/12 12:25:10;;;;;;;19.90;18.90;;;;;;;;;;5054823;28;20458;-64
2021/10/12 12:27:51;;;;;;;20.17;19.07;;;;;;;;;;5053917;28;20513;-65
2021/10/12 12:30:19;;;;;;;20.53;19.43;;;;;;;;;;5054592;28;20482;-65
2021/10/12 12:32:55;;;;;;;23.03;21.83;;;;;;;;;;5054242;28;20490;-64
2021/10/12 12:35:25;;;;;;;23.47;22.17;;;;;;;;;;5041074;28;20447;-64
2021/10/12 12:37:57;;;;;;;23.67;22.37;;;;;;;;;;5054659;28;20942;-64
2021/10/12 12:40:25;;;;;;;23.90;22.60;;;;;;;;;;5054876;28;20889;-64
2021/10/12 12:42:53;;;;;;;24.90;23.60;;;;;;;;;;5054998;28;20455;-65
2021/10/12 12:45:22;;;;;;;24.83;23.53;;;;;;;;;;5054808;28;20459;-65
2021/10/12 12:47:52;;;;;;;24.10;22.90;;;;;;;;;;5054520;28;20826;-65
2021/10/12 12:50:24;;;;;;;24.40;23.20;;;;;;;;;;5054342;28;20837;-64
2021/10/12 12:52:52;;;;;;;24.73;23.33;;;;;;;;;;5054901;28;20447;-64
2021/10/12 12:55:31;;;;;;;24.60;23.20;;;;;;;;;;5054282;28;20469;-64
2021/10/12 12:57:58;;;;;;;25.83;24.27;;;;;;;;;;5054820;28;20448;-65
2021/10/12 13:00:26;;;;;;;24.53;23.23;;;;;;;;;;5054917;28;20464;-65
2021/10/12 13:02:54;;;;;;;23.83;22.43;;;;;;;;;;5056077;28;20969;-64
2021/10/12 13:05:21;;;;;;;23.90;22.70;;;;;;;;;;5060863;28;20516;-64
2021/10/12 13:07:50;;;;;;;23.80;22.50;;;;;;;;;;5057109;28;21009;-65
2021/10/12 13:10:17;;;;;;;24.13;22.83;;;;;;;;;;5054303;28;20464;-64
2021/10/12 13:12:45;;;;;;;23.50;22.30;;;;;;;;;;5054051;28;20826;-65
2021/10/12 13:15:13;;;;;;;23.03;21.80;;;;;;;;;;5052804;28;20522;-65
2021/10/12 13:17:40;;;;;;;23.73;22.53;;;;;;;;;;5053754;28;20454;-64
2021/10/12 13:20:08;;;;;;;24.20;22.80;;;;;;;;;;5054092;28;21021;-64
2021/10/12 13:22:35;;;;;;;23.80;22.60;;;;;;;;;;5058326;28;20447;-65
2021/10/12 13:25:04;;;;;;;25.20;23.80;;;;;;;;;;5057981;28;20451;-63
2021/10/12 13:27:31;;;;;;;25.93;24.43;;;;;;;;;;5055528;28;20514;-64
2021/10/12 13:29:58;;;;;;;25.00;23.70;;;;;;;;;;5053885;28;20480;-65
2021/10/12 13:32:25;;;;;;;25.00;23.67;;;;;;;;;;5053887;28;21257;-64
2021/10/12 13:34:53;;;;;;;24.83;23.63;;;;;;;;;;5053679;28;20792;-64
2021/10/12 13:37:21;;;;;;;25.73;24.33;;;;;;;;;;5053689;28;20452;-64
2021/10/12 13:39:48;;;;;;;24.83;23.60;;;;;;;;;;5053593;28;20475;-63
2021/10/12 13:42:17;;;;;;;25.93;24.53;;;;;;;;;;5053560;28;20448;-64
2021/10/12 13:44:45;;;;;;;24.90;23.60;;;;;;;;;;5053177;28;20927;-64
2021/10/12 13:47:12;;;;;;;24.53;23.23;;;;;;;;;;5053356;28;20543;-64
2021/10/12 13:49:42;;;;;;;24.70;23.40;;;;;;;;;;5053668;28;20460;-65
2021/10/12 13:52:10;;;;;;;24.57;23.27;;;;;;;;;;5053808;28;20432;-65
2021/10/12 13:54:37;;;;;;;24.20;22.90;;;;;;;;;;5053325;28;20452;-65
2021/10/12 13:57:04;;;;;;;24.40;23.10;;;;;;;;;;5052774;28;20526;-63
2021/10/12 13:59:33;;;;;;;24.50;23.00;;;;;;;;;;5053001;28;20939;-65
2021/10/12 14:02:00;;;;;;;24.60;23.10;;;;;;;;;;5053680;28;20448;-65
2021/10/12 14:04:27;;;;;;;24.17;22.97;;;;;;;;;;5053038;28;20454;-65
2021/10/12 14:06:54;;;;;;;24.43;23.10;;;;;;;;;;5053318;28;20451;-64
2021/10/12 14:09:21;;;;;;;23.77;22.60;;;;;;;;;;5052820;28;20514;-65
2021/10/12 14:11:48;;;;;;;23.03;21.83;;;;;;;;;;5052823;28;20839;-65
2021/10/12 14:14:15;;;;;;;24.67;23.37;;;;;;;;;;5052885;28;20455;-64
2021/10/12 14:16:44;;;;;;;24.17;23.07;;;;;;;;;;5052880;28;20947;-65
2021/10/12 14:19:11;;;;;;;24.13;22.83;;;;;;;;;;5053592;28;20473;-64